Strona główna
METAR-TAF:

METAR-TAF

Lotnisko :

Aurillac, Francja

Szerokość geograficzna: 44-53N, Długość geograficzna: 002-25E, wysokość: 639 m

Aktualna obserwacja pogody

Raport powstał 39 minut temu, godzina 10:30 UTC
Wiatr 5 kt od północno-północny zachód, zmienny między zachód i północno-północny wschód
Temperatura 6°C
Wilgotność 81%
Ciśnienie 1032 hPa
Widzialność 10 km lub więcej

METAR: LFLW 181030Z AUTO 33005KT 280V020 9999 ////// 06/03 Q1032

czas: 12:09 (11:09 UTC)

Prognoza

Raport powstał 3 godziny i 9 minut temu, godzina 08:00 UTC
Prognoza ważna od 18 godzina 09 UTC do 18 godzina 18 UTC
Wiatr 2 kt z kierunków zmiennych
Widzialność 10 km lub więcej
Przerywane chmury na wysokości 800 ft
Stopniowe zmiany
od 18 godzina 09 UTC do 18 godzina 11 UTC
Przerywane chmury na wysokości 1400 ft
Przejściowo
od 18 godzina 12 UTC do 18 godzina 18 UTC
Rozproszone chmury na wysokości 1500 ft, Cumulusy wypiętrznone.
słaby przelotny opad deszczu

TAF: LFLW 180800Z 1809/1818 VRB02KT 9999 BKN008 BECMG 1809/1811 BKN014 TEMPO 1812/1818 -SHRA SCT015TCU

Obserwacja i prognoza pogody dla ponad 4000 lotnisk (raport METAR i TAF).

Dostępne stacje oznaczono żółtymi i czerwonymi punktami na mapie.

Najedź kursorem aby zobaczyć nazwę stacji.

Kliknij aby zobaczyć obserwacje i prognozy pogody.

Aby zmienić mapę: kliknij na zielony przycisk z czarnym krzyżykiem, aby powiększyć; na zielony przycisk z myślnikiem, aby pomniejszyć; na zielone strzałki, aby przejść do map sąsiednich.


METAR-TAF: